createdAt,value
2019-03-31T00:02:32.043Z,12.17
2019-03-31T00:06:32.943Z,11.73
2019-03-31T00:10:33.835Z,13.33
2019-03-31T00:14:35.355Z,15.37
2019-03-31T00:18:36.604Z,14.80
2019-03-31T00:22:37.479Z,14.93
2019-03-31T00:26:38.444Z,11.30
2019-03-31T00:30:39.428Z,12.60
2019-03-31T00:34:40.308Z,13.83
2019-03-31T00:38:41.810Z,13.23
2019-03-31T00:42:42.816Z,14.93
2019-03-31T00:46:43.701Z,12.63
2019-03-31T00:50:44.579Z,13.00
2019-03-31T00:54:45.539Z,13.80
2019-03-31T00:58:46.442Z,15.17
2019-03-31T01:02:47.695Z,17.43
2019-03-31T01:06:52.273Z,16.13
2019-03-31T01:10:53.355Z,16.20
2019-03-31T01:14:54.757Z,16.40
2019-03-31T01:18:55.846Z,15.67
2019-03-31T01:22:56.749Z,15.40
2019-03-31T01:26:57.830Z,15.90
2019-03-31T01:30:59.159Z,16.27
2019-03-31T01:35:00.381Z,17.43
2019-03-31T01:39:01.523Z,14.77
2019-03-31T01:43:02.594Z,16.37
2019-03-31T01:47:05.138Z,17.73
2019-03-31T01:51:06.205Z,16.60
2019-03-31T01:55:08.679Z,16.23
2019-03-31T01:59:09.593Z,15.73
2019-03-31T02:03:11.153Z,14.77
2019-03-31T02:07:12.286Z,17.73
2019-03-31T02:11:13.248Z,18.47
2019-03-31T02:15:16.132Z,22.10
2019-03-31T02:19:17.216Z,26.83
2019-03-31T02:23:18.140Z,19.47
2019-03-31T02:27:18.965Z,18.07
2019-03-31T02:31:20.116Z,18.90
2019-03-31T02:35:21.300Z,20.17
2019-03-31T02:39:22.277Z,18.37
2019-03-31T02:43:23.111Z,19.13
2019-03-31T02:47:23.976Z,21.07
2019-03-31T02:51:25.076Z,18.73
2019-03-31T02:55:26.126Z,17.80
2019-03-31T02:59:30.710Z,17.97
2019-03-31T03:03:32.723Z,16.90
2019-03-31T03:07:35.574Z,18.47
2019-03-31T03:11:37.264Z,18.50
2019-03-31T03:15:58.720Z,19.60
2019-03-31T03:19:59.592Z,18.70
2019-03-31T03:24:00.479Z,18.43
2019-03-31T03:28:01.462Z,17.87
2019-03-31T03:32:02.577Z,17.57
2019-03-31T03:36:03.541Z,17.23
2019-03-31T03:40:05.239Z,18.77
2019-03-31T03:44:06.212Z,19.17
2019-03-31T03:48:07.078Z,18.37
2019-03-31T03:52:07.945Z,17.43
2019-03-31T03:56:09.559Z,16.47
2019-03-31T04:00:10.733Z,18.07
2019-03-31T04:04:11.654Z,18.63
2019-03-31T04:08:13.106Z,16.80
2019-03-31T04:12:14.044Z,16.33
2019-03-31T04:16:15.036Z,17.33
2019-03-31T04:20:15.962Z,17.73
2019-03-31T04:24:16.988Z,18.63
2019-03-31T04:28:18.055Z,17.37
2019-03-31T04:32:19.028Z,19.17
2019-03-31T04:36:19.977Z,17.60
2019-03-31T04:40:21.466Z,18.03
2019-03-31T04:44:22.427Z,15.97
2019-03-31T04:48:23.312Z,15.90
2019-03-31T04:52:24.205Z,16.40
2019-03-31T04:56:25.046Z,16.10
2019-03-31T05:00:26.018Z,16.23
2019-03-31T05:04:26.921Z,15.63
2019-03-31T05:08:27.813Z,17.37
2019-03-31T05:12:28.757Z,16.23
2019-03-31T05:16:29.738Z,16.97
2019-03-31T05:20:30.624Z,16.43
2019-03-31T05:24:31.496Z,16.93
2019-03-31T05:28:32.351Z,15.47
2019-03-31T05:32:33.312Z,15.17
2019-03-31T05:36:34.207Z,16.90
2019-03-31T05:40:35.177Z,14.90
2019-03-31T05:44:36.062Z,16.67
2019-03-31T05:48:36.942Z,18.87
2019-03-31T05:52:37.906Z,16.27
2019-03-31T05:56:38.804Z,15.93
2019-03-31T06:00:41.598Z,19.63
2019-03-31T06:04:42.501Z,19.07
2019-03-31T06:08:43.380Z,25.27
2019-03-31T06:12:44.255Z,20.43
2019-03-31T06:16:45.179Z,18.63
2019-03-31T06:20:46.066Z,18.33
2019-03-31T06:24:46.942Z,17.90
2019-03-31T06:28:47.857Z,16.27
2019-03-31T06:32:48.771Z,15.93
2019-03-31T06:36:49.761Z,17.17
2019-03-31T06:40:55.752Z,17.03
2019-03-31T06:44:56.601Z,15.20
2019-03-31T06:48:57.501Z,16.10
2019-03-31T06:52:58.386Z,14.90
2019-03-31T06:56:59.382Z,13.77
2019-03-31T07:01:00.299Z,13.67
2019-03-31T07:05:02.514Z,13.77
2019-03-31T07:09:05.225Z,12.97
2019-03-31T07:13:06.282Z,14.03
2019-03-31T07:17:07.155Z,14.13
2019-03-31T07:21:08.022Z,15.00
2019-03-31T07:25:10.498Z,14.93
2019-03-31T07:29:11.465Z,14.23
2019-03-31T07:33:12.458Z,15.07
2019-03-31T07:37:13.335Z,14.73
2019-03-31T07:41:14.342Z,15.77
2019-03-31T07:45:16.126Z,15.37
2019-03-31T07:49:17.039Z,14.87
2019-03-31T07:53:17.976Z,15.70
2019-03-31T07:57:18.971Z,13.37
2019-03-31T08:01:20.049Z,14.67
2019-03-31T08:05:32.449Z,17.47
2019-03-31T08:09:23.997Z,18.17
2019-03-31T08:13:25.044Z,17.83
2019-03-31T08:17:26.027Z,18.03
2019-03-31T08:21:27.320Z,18.00
2019-03-31T08:25:28.205Z,17.97
2019-03-31T08:29:29.099Z,17.67
2019-03-31T08:33:30.072Z,18.60
2019-03-31T08:37:31.092Z,18.67
2019-03-31T08:41:32.016Z,17.90
2019-03-31T08:45:32.966Z,18.00
2019-03-31T08:49:33.832Z,19.43
2019-03-31T08:53:34.806Z,20.37
2019-03-31T08:57:35.750Z,19.37
2019-03-31T09:01:36.731Z,19.63
2019-03-31T09:05:37.740Z,20.20
2019-03-31T09:09:38.791Z,21.23
2019-03-31T09:13:39.791Z,19.57
2019-03-31T09:17:40.665Z,22.00
2019-03-31T09:21:41.654Z,20.20
2019-03-31T09:25:42.760Z,21.43
2019-03-31T09:29:43.645Z,20.77
2019-03-31T09:33:44.753Z,21.53
2019-03-31T09:37:45.659Z,20.73
2019-03-31T09:41:46.580Z,20.07
2019-03-31T09:45:47.540Z,23.13
2019-03-31T09:49:48.403Z,23.00
2019-03-31T09:53:49.303Z,23.30
2019-03-31T09:57:50.325Z,22.53
2019-03-31T10:01:51.309Z,24.53
2019-03-31T10:05:52.408Z,24.13
2019-03-31T10:09:53.834Z,23.77
2019-03-31T10:13:54.732Z,26.77
2019-03-31T10:17:56.919Z,26.13
2019-03-31T10:21:57.868Z,27.33
2019-03-31T10:25:58.730Z,27.93
2019-03-31T10:29:59.798Z,27.50
2019-03-31T10:34:00.718Z,27.10
2019-03-31T10:38:01.779Z,31.27
2019-03-31T10:42:02.769Z,30.77
2019-03-31T10:46:03.764Z,27.77
2019-03-31T10:50:05.345Z,29.30
2019-03-31T10:54:06.510Z,28.80
2019-03-31T10:58:07.506Z,30.03
2019-03-31T11:02:08.383Z,33.83
2019-03-31T11:06:09.576Z,32.07
2019-03-31T11:10:10.913Z,29.93
2019-03-31T11:14:11.839Z,32.83
2019-03-31T11:18:12.735Z,30.97
2019-03-31T11:22:18.753Z,30.00
2019-03-31T11:26:19.666Z,30.10
2019-03-31T11:30:20.670Z,29.03
2019-03-31T11:34:21.573Z,31.13
2019-03-31T11:38:22.502Z,32.33
2019-03-31T11:42:23.369Z,32.30
2019-03-31T11:46:24.279Z,26.93
2019-03-31T11:50:25.268Z,31.23
2019-03-31T11:54:26.161Z,32.63
2019-03-31T11:58:27.002Z,35.30
2019-03-31T12:02:28.145Z,35.77
2019-03-31T12:06:29.339Z,38.57
2019-03-31T12:10:30.223Z,36.77
2019-03-31T12:14:31.214Z,32.77
2019-03-31T12:18:32.228Z,37.10
2019-03-31T12:22:33.225Z,34.83
2019-03-31T12:26:34.106Z,35.13
2019-03-31T12:30:34.966Z,39.07
2019-03-31T12:34:35.887Z,33.67
2019-03-31T12:38:36.774Z,33.07
2019-03-31T12:42:37.676Z,34.27
2019-03-31T12:46:38.777Z,32.80
2019-03-31T12:50:39.856Z,33.47
2019-03-31T12:54:40.743Z,33.27
2019-03-31T12:58:41.668Z,31.63
2019-03-31T13:02:42.628Z,30.70
2019-03-31T13:06:43.606Z,35.03
2019-03-31T13:10:44.591Z,30.03
2019-03-31T13:14:45.516Z,34.77
2019-03-31T13:18:46.533Z,32.47
2019-03-31T13:22:47.442Z,28.10
2019-03-31T13:26:48.462Z,37.30
2019-03-31T13:30:49.481Z,35.70
2019-03-31T13:34:50.387Z,33.27
2019-03-31T13:38:51.373Z,33.90
2019-03-31T13:42:52.373Z,34.73
2019-03-31T13:46:53.346Z,32.97
2019-03-31T13:50:54.322Z,34.90
2019-03-31T13:54:55.203Z,39.67
2019-03-31T13:58:56.087Z,34.27
2019-03-31T14:02:57.078Z,35.23
2019-03-31T14:06:58.021Z,33.87
2019-03-31T14:10:59.149Z,35.83
2019-03-31T14:15:00.346Z,39.17
2019-03-31T14:19:01.666Z,38.97
2019-03-31T14:23:02.958Z,39.27
2019-03-31T14:27:04.052Z,44.50
2019-03-31T14:31:05.134Z,45.43
2019-03-31T14:35:06.496Z,45.13
2019-03-31T14:39:07.893Z,44.43
2019-03-31T14:43:09.008Z,48.43
2019-03-31T14:47:09.872Z,50.37
2019-03-31T14:51:10.799Z,47.50
2019-03-31T14:55:11.799Z,51.33
2019-03-31T14:59:12.769Z,47.37
2019-03-31T15:03:13.745Z,47.57
2019-03-31T15:07:14.679Z,47.53
2019-03-31T15:11:15.552Z,49.07
2019-03-31T15:15:16.680Z,49.27
2019-03-31T15:19:18.048Z,49.73
2019-03-31T15:23:19.093Z,49.67
2019-03-31T15:27:19.974Z,50.43
2019-03-31T15:31:20.960Z,47.50
2019-03-31T15:35:21.967Z,45.40
2019-03-31T15:39:22.963Z,46.63
2019-03-31T15:43:23.927Z,45.17
2019-03-31T15:47:24.825Z,45.43
2019-03-31T15:51:25.836Z,45.60
2019-03-31T15:55:28.478Z,44.37
2019-03-31T15:59:30.230Z,46.30
2019-03-31T16:03:33.638Z,43.90
2019-03-31T16:07:34.843Z,44.07
2019-03-31T16:11:36.202Z,41.27
2019-03-31T16:15:37.120Z,44.27
2019-03-31T16:19:38.131Z,42.33
2019-03-31T16:23:39.052Z,40.50
2019-03-31T16:27:39.956Z,43.97
2019-03-31T16:31:42.502Z,37.00
2019-03-31T16:35:43.498Z,37.77
2019-03-31T16:39:45.596Z,40.27
2019-03-31T16:43:46.660Z,35.97
2019-03-31T16:47:47.752Z,36.77
2019-03-31T16:51:48.721Z,33.13
2019-03-31T16:55:49.627Z,32.33
2019-03-31T16:59:50.910Z,29.10
2019-03-31T17:03:51.891Z,29.17
2019-03-31T17:07:52.834Z,27.13
2019-03-31T17:11:53.691Z,23.53
2019-03-31T17:15:54.727Z,21.90
2019-03-31T17:19:55.614Z,24.53
2019-03-31T17:23:56.546Z,23.10
2019-03-31T17:27:57.583Z,22.57
2019-03-31T17:31:58.581Z,22.57
2019-03-31T17:35:59.730Z,21.83
2019-03-31T17:40:06.429Z,23.30
2019-03-31T17:44:03.546Z,22.40
2019-03-31T17:48:04.472Z,22.07
2019-03-31T17:52:05.360Z,22.20
2019-03-31T17:56:06.375Z,20.17
2019-03-31T18:00:08.527Z,21.57
2019-03-31T18:04:09.541Z,23.93
2019-03-31T18:08:10.653Z,20.30
2019-03-31T18:12:11.757Z,19.70
2019-03-31T18:16:12.957Z,22.95
2019-03-31T18:20:14.023Z,20.93
2019-03-31T18:24:14.907Z,19.07
2019-03-31T18:28:16.401Z,19.47
2019-03-31T18:32:17.910Z,18.70
2019-03-31T18:36:18.971Z,19.77
2019-03-31T18:40:34.021Z,18.00
2019-03-31T18:44:22.660Z,17.90
2019-03-31T18:48:23.821Z,16.17
2019-03-31T18:52:24.801Z,14.93
2019-03-31T18:56:39.805Z,15.30
2019-03-31T19:00:46.044Z,15.37
2019-03-31T19:04:49.126Z,14.63
2019-03-31T19:09:07.575Z,11.90
2019-03-31T19:13:20.322Z,13.00
2019-03-31T19:17:38.505Z,13.00
2019-03-31T19:21:58.861Z,11.77
2019-03-31T19:26:18.516Z,11.23
2019-03-31T19:30:33.510Z,11.47
2019-03-31T19:34:36.494Z,11.00
2019-03-31T19:38:48.334Z,11.23
2019-03-31T19:42:54.068Z,10.67
2019-03-31T19:46:56.867Z,9.60
2019-03-31T19:51:02.695Z,11.07
2019-03-31T19:55:06.826Z,9.70
2019-03-31T19:59:15.461Z,10.20
2019-03-31T20:03:18.736Z,10.07
2019-03-31T20:07:31.130Z,9.70
2019-03-31T20:11:33.910Z,9.83
2019-03-31T20:15:53.601Z,10.97
2019-03-31T20:19:56.472Z,10.10
2019-03-31T20:24:03.538Z,10.40
2019-03-31T20:28:09.868Z,10.37
2019-03-31T20:32:23.608Z,9.70
2019-03-31T20:36:38.405Z,10.63
2019-03-31T20:40:44.177Z,10.43
2019-03-31T20:44:45.095Z,9.63
2019-03-31T20:48:45.979Z,9.20
2019-03-31T20:52:46.894Z,11.17
2019-03-31T20:56:47.914Z,10.07
2019-03-31T21:00:48.811Z,10.37
2019-03-31T21:04:49.819Z,10.57
2019-03-31T21:08:50.809Z,9.97
2019-03-31T21:12:51.716Z,9.33
2019-03-31T21:16:54.510Z,9.83
2019-03-31T21:20:55.369Z,9.80
2019-03-31T21:24:56.257Z,9.53
2019-03-31T21:28:57.127Z,9.83
2019-03-31T21:32:58.037Z,10.53
2019-03-31T21:36:59.012Z,9.93
2019-03-31T21:40:59.908Z,10.77
2019-03-31T21:45:01.102Z,10.07
2019-03-31T21:49:02.064Z,10.07
2019-03-31T21:53:03.080Z,10.37
2019-03-31T21:57:04.027Z,10.60
2019-03-31T22:01:05.388Z,9.67
2019-03-31T22:05:06.785Z,10.47
2019-03-31T22:09:09.809Z,10.40
2019-03-31T22:13:10.800Z,10.23
2019-03-31T22:17:11.662Z,10.77
2019-03-31T22:21:12.653Z,13.00
2019-03-31T22:25:13.619Z,11.50
2019-03-31T22:29:14.512Z,10.27
2019-03-31T22:33:15.459Z,11.00
2019-03-31T22:37:16.438Z,11.03
2019-03-31T22:41:17.597Z,10.50
2019-03-31T22:45:18.464Z,10.70
2019-03-31T22:49:19.362Z,11.93
2019-03-31T22:53:20.217Z,11.17
2019-03-31T22:57:21.174Z,12.40
2019-03-31T23:01:22.178Z,10.80
2019-03-31T23:05:23.058Z,10.83
2019-03-31T23:09:23.949Z,12.47
2019-03-31T23:13:24.807Z,12.10
2019-03-31T23:17:25.728Z,11.43
2019-03-31T23:21:26.606Z,11.03
2019-03-31T23:25:27.479Z,12.13
2019-03-31T23:29:28.326Z,11.80
2019-03-31T23:33:29.183Z,11.33
2019-03-31T23:37:30.058Z,11.87
2019-03-31T23:41:30.929Z,10.27
2019-03-31T23:45:32.467Z,13.83
2019-03-31T23:49:33.584Z,11.80
2019-03-31T23:53:34.467Z,12.37
2019-03-31T23:57:38.570Z,12.60
